Terminal Aerodrome Forecast
Issued by NWS Cleveland, OH

Home | Current Version | Previous Version | Graphics & Text | Print | Product List | Glossary On
Versions: 1 2 3 4 5 6 7 8 9 10 11 12 13 14
000
FTUS41 KCLE 240533
TAFERI
TAF
KERI 240533Z 2406/2506 VRB04KT P6SM FEW250
     FM241200 06010KT P6SM FEW100 SCT250
     FM241500 03015G25KT P6SM FEW100 SCT250
     FM250000 08012KT P6SM SCT100 BKN250
     FM250300 12010KT P6SM SCT050 BKN100=

USA.gov is the U.S. government's official web portal to all federal, state and local government web resources and services.